createdAt,value
2019-01-19T00:00:38.921Z,94.46
2019-01-19T00:03:46.049Z,94.46
2019-01-19T00:06:53.268Z,94.38
2019-01-19T00:10:01.740Z,94.43
2019-01-19T00:13:10.238Z,94.00
2019-01-19T00:16:18.698Z,94.01
2019-01-19T00:19:25.892Z,94.02
2019-01-19T00:22:34.375Z,93.79
2019-01-19T00:25:41.541Z,93.73
2019-01-19T00:28:48.862Z,94.00
2019-01-19T00:31:57.423Z,93.86
2019-01-19T00:35:05.907Z,94.16
2019-01-19T00:38:14.416Z,94.41
2019-01-19T00:41:21.654Z,93.93
2019-01-19T00:44:30.131Z,94.01
2019-01-19T00:47:37.376Z,94.16
2019-01-19T00:50:44.617Z,94.44
2019-01-19T00:53:53.082Z,94.47
2019-01-19T00:57:00.273Z,94.29
2019-01-19T01:00:08.759Z,94.63
2019-01-19T01:03:17.487Z,94.74
2019-01-19T01:06:24.641Z,94.24
2019-01-19T01:09:31.868Z,94.11
2019-01-19T01:12:39.095Z,93.51
2019-01-19T01:15:46.313Z,93.35
2019-01-19T01:18:53.538Z,93.63
2019-01-19T01:22:01.532Z,93.40
2019-01-19T01:25:08.728Z,93.51
2019-01-19T01:28:15.958Z,93.89
2019-01-19T01:31:23.190Z,93.79
2019-01-19T01:34:30.409Z,93.39
2019-01-19T01:37:37.696Z,93.55
2019-01-19T01:40:44.919Z,93.69
2019-01-19T01:43:34.255Z,93.26
2019-01-19T01:46:42.750Z,92.88
2019-01-19T01:49:32.062Z,92.76
2019-01-19T01:52:40.550Z,93.24
2019-01-19T01:55:49.106Z,93.34
2019-01-19T01:58:38.422Z,93.65
2019-01-19T02:01:46.908Z,93.53
2019-01-19T02:04:55.396Z,93.68
2019-01-19T02:08:03.870Z,93.29
2019-01-19T02:11:11.099Z,93.93
2019-01-19T02:14:19.578Z,93.74
2019-01-19T02:17:28.024Z,94.01
2019-01-19T02:20:36.602Z,93.74
2019-01-19T02:23:45.045Z,94.17
2019-01-19T02:26:53.570Z,93.88
2019-01-19T02:30:00.748Z,94.33
2019-01-19T02:33:09.236Z,94.64
2019-01-19T02:36:16.463Z,94.09
2019-01-19T02:39:23.630Z,93.62
2019-01-19T02:42:32.122Z,93.85
2019-01-19T02:45:40.615Z,93.97
2019-01-19T02:48:49.123Z,93.77
2019-01-19T02:51:56.357Z,93.96
2019-01-19T02:55:03.637Z,94.12
2019-01-19T02:58:10.817Z,94.19
2019-01-19T03:04:13.022Z,95.37
2019-01-19T03:07:20.240Z,95.56
2019-01-19T03:10:27.497Z,95.60
2019-01-19T03:13:36.016Z,95.67
2019-01-19T03:16:44.507Z,95.34
2019-01-19T03:19:52.951Z,95.17
2019-01-19T03:23:01.486Z,95.32
2019-01-19T03:26:08.684Z,95.35
2019-01-19T03:29:15.931Z,95.45
2019-01-19T03:32:24.385Z,95.34
2019-01-19T03:35:32.871Z,95.25
2019-01-19T03:38:40.114Z,95.24
2019-01-19T03:41:48.679Z,95.35
2019-01-19T03:44:57.139Z,96.19
2019-01-19T03:48:05.613Z,95.56
2019-01-19T03:51:14.383Z,95.84
2019-01-19T03:54:23.101Z,95.85
2019-01-19T03:57:33.506Z,95.46
2019-01-19T04:00:41.374Z,95.59
2019-01-19T04:03:31.805Z,96.13
2019-01-19T04:06:39.631Z,96.40
2019-01-19T04:09:46.846Z,96.38
2019-01-19T04:12:54.353Z,95.94
2019-01-19T04:15:35.711Z,95.64
2019-01-19T04:18:43.067Z,95.35
2019-01-19T04:21:51.556Z,95.49
2019-01-19T04:30:20.541Z,95.24
2019-01-19T04:33:08.533Z,95.03
2019-01-19T04:35:56.354Z,94.87
2019-01-19T04:40:58.847Z,94.58
2019-01-19T04:43:46.917Z,94.53
2019-01-19T04:46:34.848Z,94.79
2019-01-19T04:54:37.178Z,95.08
2019-01-19T04:57:05.859Z,94.85
2019-01-19T04:59:53.827Z,94.94
2019-01-19T05:02:41.760Z,95.19
2019-01-19T05:08:04.022Z,95.44
2019-01-19T05:16:14.288Z,94.22
2019-01-19T05:19:02.223Z,93.91
2019-01-19T05:22:10.726Z,93.83
2019-01-19T05:24:58.894Z,93.94
2019-01-19T05:27:46.836Z,93.78
2019-01-19T05:30:57.042Z,93.67
2019-01-19T05:33:25.738Z,93.42
2019-01-19T05:36:13.674Z,93.35
2019-01-19T05:44:29.400Z,93.36
2019-01-19T05:47:17.324Z,93.47
2019-01-19T05:55:13.717Z,93.76
2019-01-19T05:57:42.397Z,93.50
2019-01-19T06:00:50.886Z,93.81
2019-01-19T06:03:38.846Z,93.81
2019-01-19T06:06:26.659Z,93.62
2019-01-19T06:09:14.612Z,94.25
2019-01-19T06:12:02.454Z,93.91
2019-01-19T06:14:50.234Z,93.74
2019-01-19T06:17:38.078Z,93.73
2019-01-19T06:20:46.587Z,94.04
2019-01-19T06:26:08.912Z,94.31
2019-01-19T06:28:56.864Z,94.55
2019-01-19T06:31:44.806Z,94.80
2019-01-19T06:34:32.761Z,94.89
2019-01-19T06:37:20.726Z,94.90
2019-01-19T06:39:49.457Z,95.51
2019-01-19T06:42:37.302Z,96.00
2019-01-19T06:45:45.817Z,95.80
2019-01-19T06:48:33.903Z,95.57
2019-01-19T06:53:37.203Z,95.44
2019-01-19T06:56:05.918Z,95.26
2019-01-19T06:58:53.939Z,95.23
2019-01-19T07:09:45.128Z,95.73
2019-01-19T07:15:01.556Z,95.02
2019-01-19T07:20:57.694Z,94.48
2019-01-19T07:26:33.227Z,94.24
2019-01-19T07:29:21.184Z,94.43
2019-01-19T07:32:09.111Z,94.39
2019-01-19T07:34:56.971Z,94.97
2019-01-19T07:37:44.818Z,94.80
2019-01-19T07:40:53.261Z,94.68
2019-01-19T07:46:41.280Z,95.51
2019-01-19T07:52:03.414Z,95.24
2019-01-19T07:54:51.384Z,95.46
2019-01-19T07:57:20.096Z,95.10
2019-01-19T08:00:31.415Z,94.64
2019-01-19T08:03:40.106Z,94.67
2019-01-19T08:06:27.944Z,94.75
2019-01-19T08:09:15.921Z,94.64
2019-01-19T08:12:03.884Z,94.47
2019-01-19T08:31:13.294Z,93.84
2019-01-19T08:34:01.133Z,93.17
2019-01-19T08:36:49.118Z,92.32
2019-01-19T08:39:37.139Z,92.52
2019-01-19T08:44:40.103Z,91.79
2019-01-19T08:50:15.714Z,91.22
2019-01-19T08:55:32.416Z,90.62
2019-01-19T09:04:09.424Z,89.82
2019-01-19T09:06:57.446Z,90.26
2019-01-19T09:10:06.225Z,89.74
2019-01-19T09:12:54.671Z,89.78
2019-01-19T09:21:53.681Z,89.68
2019-01-19T09:24:41.710Z,90.34
2019-01-19T09:30:03.716Z,88.93
2019-01-19T09:37:56.020Z,86.99
2019-01-19T09:40:44.000Z,86.61
2019-01-19T09:46:00.278Z,85.98
2019-01-19T09:48:48.312Z,85.58
2019-01-19T09:51:56.823Z,84.89
2019-01-19T09:57:32.387Z,84.67
2019-01-19T10:00:01.157Z,85.09
2019-01-19T10:02:49.129Z,84.24
2019-01-19T10:05:57.637Z,83.06
2019-01-19T10:08:45.607Z,83.54
2019-01-19T10:11:33.474Z,83.46
2019-01-19T10:14:21.448Z,83.34
2019-01-19T10:17:09.440Z,85.34
2019-01-19T10:22:12.202Z,84.98
2019-01-19T10:30:41.378Z,84.93
2019-01-19T10:33:10.163Z,84.18
2019-01-19T10:35:58.090Z,84.09
2019-01-19T10:38:26.821Z,83.49
2019-01-19T10:44:02.371Z,82.89
2019-01-19T10:49:43.436Z,81.91
2019-01-19T10:52:12.176Z,80.00
2019-01-19T10:57:34.370Z,79.65
2019-01-19T11:06:04.287Z,80.31
2019-01-19T11:08:52.128Z,80.54
2019-01-19T11:11:40.103Z,78.84
2019-01-19T11:14:28.040Z,79.56
2019-01-19T11:19:30.959Z,80.15
2019-01-19T11:24:47.332Z,81.36
2019-01-19T11:33:38.153Z,79.05
2019-01-19T11:36:25.954Z,78.28
2019-01-19T11:39:14.038Z,79.52
2019-01-19T11:42:01.966Z,79.97
2019-01-19T11:44:51.336Z,80.56
2019-01-19T11:47:39.620Z,80.21
2019-01-19T11:50:48.132Z,80.42
2019-01-19T11:53:36.091Z,80.80
2019-01-19T11:56:23.887Z,81.10
2019-01-19T11:59:11.862Z,81.20
2019-01-19T12:09:42.493Z,77.86
2019-01-19T12:12:30.479Z,78.03
2019-01-19T12:21:00.935Z,79.01
2019-01-19T12:23:29.597Z,79.59
2019-01-19T12:25:58.396Z,79.85
2019-01-19T12:28:27.176Z,80.47
2019-01-19T12:31:15.019Z,79.78
2019-01-19T12:39:45.622Z,80.33
2019-01-19T12:42:54.766Z,79.27
2019-01-19T12:46:05.057Z,79.28
2019-01-19T12:51:07.898Z,79.21
2019-01-19T12:56:43.606Z,78.15
2019-01-19T12:59:31.447Z,80.67
2019-01-19T13:02:40.033Z,79.60
2019-01-19T13:05:48.531Z,80.94
2019-01-19T13:08:56.987Z,81.56
2019-01-19T13:12:04.659Z,80.47
2019-01-19T13:15:13.174Z,80.18
2019-01-19T13:18:21.755Z,80.87
2019-01-19T13:21:29.045Z,83.11
2019-01-19T13:24:38.012Z,83.41
2019-01-19T13:27:45.215Z,82.24
2019-01-19T13:30:52.458Z,83.13
2019-01-19T13:34:01.008Z,83.01
2019-01-19T13:37:08.219Z,83.87
2019-01-19T13:40:16.682Z,83.87
2019-01-19T13:43:23.923Z,84.11
2019-01-19T13:46:31.111Z,83.20
2019-01-19T13:49:38.356Z,85.18
2019-01-19T13:52:45.655Z,84.34
2019-01-19T13:55:54.234Z,83.09
2019-01-19T14:05:09.045Z,82.89
2019-01-19T14:11:29.956Z,83.53
2019-01-19T14:14:37.203Z,82.90
2019-01-19T14:17:44.456Z,83.54
2019-01-19T14:20:51.751Z,83.47
2019-01-19T14:24:00.242Z,82.91
2019-01-19T14:27:08.904Z,83.57
2019-01-19T14:30:17.624Z,82.10
2019-01-19T14:33:26.135Z,82.14
2019-01-19T14:36:34.762Z,82.08
2019-01-19T14:39:41.992Z,82.06
2019-01-19T14:42:49.331Z,83.04
2019-01-19T14:45:56.581Z,83.97
2019-01-19T14:49:03.778Z,82.79
2019-01-19T14:52:12.265Z,83.79
2019-01-19T14:55:19.474Z,82.81
2019-01-19T14:58:28.104Z,82.52
2019-01-19T15:01:35.284Z,82.20
2019-01-19T15:04:42.539Z,83.04
2019-01-19T15:07:51.039Z,81.55
2019-01-19T15:10:59.517Z,82.37
2019-01-19T15:14:07.056Z,82.34
2019-01-19T15:17:14.293Z,82.12
2019-01-19T15:20:21.544Z,83.48
2019-01-19T15:23:30.097Z,83.49
2019-01-19T15:26:38.593Z,82.90
2019-01-19T15:29:45.882Z,83.16
2019-01-19T15:32:54.376Z,83.36
2019-01-19T15:36:01.623Z,83.56
2019-01-19T15:39:11.068Z,84.42
2019-01-19T15:42:20.566Z,85.02
2019-01-19T15:45:27.798Z,85.04
2019-01-19T15:48:35.006Z,84.83
2019-01-19T15:51:43.522Z,84.48
2019-01-19T15:54:52.143Z,84.56
2019-01-19T15:58:00.688Z,84.73
2019-01-19T16:01:09.247Z,85.19
2019-01-19T16:04:17.798Z,85.14
2019-01-19T16:07:26.264Z,84.87
2019-01-19T16:10:33.505Z,85.29
2019-01-19T16:13:40.694Z,84.62
2019-01-19T16:16:47.986Z,84.62
2019-01-19T16:19:56.495Z,84.97
2019-01-19T16:23:03.668Z,85.16
2019-01-19T16:26:10.920Z,86.02
2019-01-19T16:29:19.500Z,85.64
2019-01-19T16:32:26.711Z,84.16
2019-01-19T16:35:33.965Z,84.02
2019-01-19T16:38:42.513Z,83.98
2019-01-19T16:41:49.711Z,84.71
2019-01-19T16:44:56.948Z,85.49
2019-01-19T16:48:04.526Z,83.56
2019-01-19T16:51:11.722Z,84.01
2019-01-19T16:54:19.359Z,84.91
2019-01-19T16:57:26.991Z,84.38
2019-01-19T17:00:34.196Z,84.78
2019-01-19T17:03:42.763Z,85.14
2019-01-19T17:06:57.155Z,85.16
2019-01-19T17:10:05.685Z,84.74
2019-01-19T17:13:12.930Z,84.99
2019-01-19T17:16:21.484Z,85.03
2019-01-19T17:19:28.717Z,85.20
2019-01-19T17:22:37.288Z,85.35
2019-01-19T17:25:44.488Z,85.81
2019-01-19T17:28:51.748Z,85.81
2019-01-19T17:32:00.293Z,86.37
2019-01-19T17:35:07.531Z,86.20
2019-01-19T17:38:16.028Z,86.13
2019-01-19T17:41:23.220Z,86.42
2019-01-19T17:44:31.769Z,86.34
2019-01-19T17:47:38.958Z,86.64
2019-01-19T17:50:47.455Z,86.75
2019-01-19T17:53:54.639Z,86.98
2019-01-19T17:57:01.872Z,87.82
2019-01-19T18:00:10.329Z,87.49
2019-01-19T18:02:59.650Z,86.55
2019-01-19T18:06:06.899Z,85.96
2019-01-19T18:09:15.211Z,86.80
2019-01-19T18:12:24.309Z,87.86
2019-01-19T18:15:31.547Z,87.57
2019-01-19T18:18:40.098Z,87.70
2019-01-19T18:21:47.345Z,87.77
2019-01-19T18:24:54.576Z,87.46
2019-01-19T18:28:01.872Z,88.16
2019-01-19T18:31:09.204Z,88.11
2019-01-19T18:34:16.451Z,87.97
2019-01-19T18:37:23.689Z,87.72
2019-01-19T18:40:32.181Z,88.38
2019-01-19T18:43:39.383Z,88.72
2019-01-19T18:46:47.888Z,89.12
2019-01-19T18:49:55.140Z,89.51
2019-01-19T18:53:03.633Z,90.29
2019-01-19T18:59:07.287Z,90.65
2019-01-19T19:02:14.482Z,90.71
2019-01-19T19:05:21.739Z,90.86
2019-01-19T19:08:30.200Z,91.54
2019-01-19T19:11:37.439Z,92.02
2019-01-19T19:14:45.948Z,92.31
2019-01-19T19:17:54.430Z,92.16
2019-01-19T19:21:01.659Z,92.51
2019-01-19T19:24:08.897Z,92.75
2019-01-19T19:27:17.366Z,93.20
2019-01-19T19:30:24.605Z,93.13
2019-01-19T19:33:33.214Z,93.20
2019-01-19T19:36:22.738Z,92.87
2019-01-19T19:42:30.513Z,93.09
2019-01-19T19:45:37.754Z,93.42
2019-01-19T19:48:46.352Z,93.36
2019-01-19T19:51:53.598Z,93.28
2019-01-19T19:57:49.578Z,93.04
2019-01-19T20:00:38.008Z,92.60
2019-01-19T20:06:00.423Z,92.58
2019-01-19T20:08:48.220Z,92.93
2019-01-19T20:11:16.982Z,92.92
2019-01-19T20:14:04.904Z,92.93
2019-01-19T20:16:52.745Z,93.12
2019-01-19T20:19:40.580Z,93.03
2019-01-19T20:25:16.219Z,92.47
2019-01-19T20:27:46.300Z,92.12
2019-01-19T20:30:34.623Z,92.19
2019-01-19T20:33:22.577Z,92.19
2019-01-19T20:35:51.396Z,92.30
2019-01-19T20:38:39.365Z,92.25
2019-01-19T20:41:27.345Z,92.49
2019-01-19T20:44:15.327Z,92.79
2019-01-19T21:03:41.837Z,91.59
2019-01-19T21:06:29.871Z,91.43
2019-01-19T21:09:17.945Z,92.69
2019-01-19T21:11:48.533Z,92.69
2019-01-19T21:20:46.767Z,93.92
2019-01-19T21:23:55.244Z,93.57
2019-01-19T21:29:51.419Z,92.46
2019-01-19T21:32:39.360Z,92.76
2019-01-19T21:38:20.668Z,93.31
2019-01-19T21:41:08.739Z,94.58
2019-01-19T21:44:17.561Z,94.58
2019-01-19T21:47:07.525Z,94.38
2019-01-19T22:04:00.650Z,94.33
2019-01-19T22:12:39.548Z,94.69
2019-01-19T22:15:48.380Z,94.41
2019-01-19T22:18:29.847Z,94.00
2019-01-19T22:24:30.567Z,94.29
2019-01-19T22:27:39.692Z,94.23
2019-01-19T22:30:32.506Z,94.19
2019-01-19T22:36:18.830Z,94.02
2019-01-19T22:39:06.822Z,93.17
2019-01-19T22:47:44.918Z,92.75
2019-01-19T22:50:53.559Z,93.68
2019-01-19T22:53:41.895Z,94.22
2019-01-19T23:02:13.101Z,93.96
2019-01-19T23:04:41.836Z,94.36
2019-01-19T23:07:10.620Z,94.90
2019-01-19T23:09:39.304Z,95.30
2019-01-19T23:17:56.330Z,95.09
2019-01-19T23:34:09.286Z,94.95
2019-01-19T23:39:45.001Z,95.21
2019-01-19T23:42:13.725Z,94.45
2019-01-19T23:48:10.183Z,94.53
2019-01-19T23:51:18.665Z,94.48
2019-01-19T23:53:47.381Z,94.72
2019-01-19T23:56:16.056Z,95.24
2019-01-19T23:59:04.080Z,95.24
